sensor_id;sensor_type;location;lat;lon;timestamp;pressure;altitude;pressure_sealevel;temperature;humidity
72921;BME280;61064;51.654;5.476;2023-06-26T00:01:29;101201.75;;;25.25;55.09
72921;BME280;61064;51.654;5.476;2023-06-26T00:03:56;101203.75;;;25.22;55.26
72921;BME280;61064;51.654;5.476;2023-06-26T00:06:21;101215.59;;;25.21;55.34
72921;BME280;61064;51.654;5.476;2023-06-26T00:08:50;101207.59;;;25.18;55.00
72921;BME280;61064;51.654;5.476;2023-06-26T00:11:15;101207.72;;;25.15;54.85
72921;BME280;61064;51.654;5.476;2023-06-26T00:13:41;101197.69;;;25.15;54.88
72921;BME280;61064;51.654;5.476;2023-06-26T00:16:07;101196.03;;;25.13;54.58
72921;BME280;61064;51.654;5.476;2023-06-26T00:18:32;101186.09;;;25.12;54.63
72921;BME280;61064;51.654;5.476;2023-06-26T00:20:58;101190.66;;;25.11;54.58
72921;BME280;61064;51.654;5.476;2023-06-26T00:23:23;101186.31;;;25.07;54.72
72921;BME280;61064;51.654;5.476;2023-06-26T00:25:48;101194.56;;;25.06;54.70
72921;BME280;61064;51.654;5.476;2023-06-26T00:28:14;101191.06;;;25.02;54.89
72921;BME280;61064;51.654;5.476;2023-06-26T00:30:39;101186.66;;;25.00;54.94
72921;BME280;61064;51.654;5.476;2023-06-26T00:33:04;101183.28;;;24.95;55.10
72921;BME280;61064;51.654;5.476;2023-06-26T00:35:30;101183.50;;;24.90;55.04
72921;BME280;61064;51.654;5.476;2023-06-26T00:37:55;101189.94;;;24.88;55.30
72921;BME280;61064;51.654;5.476;2023-06-26T00:40:21;101183.00;;;24.80;55.34
72921;BME280;61064;51.654;5.476;2023-06-26T00:42:46;101187.72;;;24.77;55.69
72921;BME280;61064;51.654;5.476;2023-06-26T00:45:11;101193.44;;;24.71;55.69
72921;BME280;61064;51.654;5.476;2023-06-26T00:47:37;101184.63;;;24.66;55.67
72921;BME280;61064;51.654;5.476;2023-06-26T00:50:03;101185.84;;;24.59;56.09
72921;BME280;61064;51.654;5.476;2023-06-26T00:52:29;101187.91;;;24.54;56.29
72921;BME280;61064;51.654;5.476;2023-06-26T00:54:55;101189.00;;;24.50;56.23
72921;BME280;61064;51.654;5.476;2023-06-26T00:57:21;101191.13;;;24.43;56.40
72921;BME280;61064;51.654;5.476;2023-06-26T00:59:47;101197.66;;;24.39;56.66
72921;BME280;61064;51.654;5.476;2023-06-26T01:02:13;101198.81;;;24.33;56.73
72921;BME280;61064;51.654;5.476;2023-06-26T01:04:48;101193.69;;;24.26;56.63
72921;BME280;61064;51.654;5.476;2023-06-26T01:07:15;101200.25;;;24.22;56.67
72921;BME280;61064;51.654;5.476;2023-06-26T01:09:41;101203.19;;;24.16;56.83
72921;BME280;61064;51.654;5.476;2023-06-26T01:12:07;101205.22;;;24.11;56.80
72921;BME280;61064;51.654;5.476;2023-06-26T01:14:34;101205.50;;;24.04;56.81
72921;BME280;61064;51.654;5.476;2023-06-26T01:17:01;101213.81;;;24.01;57.22
72921;BME280;61064;51.654;5.476;2023-06-26T01:19:28;101206.78;;;23.96;57.41
72921;BME280;61064;51.654;5.476;2023-06-26T01:22:19;101212.53;;;23.88;57.33
72921;BME280;61064;51.654;5.476;2023-06-26T01:25:02;101223.69;;;23.82;57.36
72921;BME280;61064;51.654;5.476;2023-06-26T01:27:30;101218.38;;;23.79;57.47
72921;BME280;61064;51.654;5.476;2023-06-26T01:30:00;101217.81;;;23.71;57.42
72921;BME280;61064;51.654;5.476;2023-06-26T01:32:28;101225.13;;;23.69;57.54
72921;BME280;61064;51.654;5.476;2023-06-26T01:34:54;101221.81;;;23.63;57.73
72921;BME280;61064;51.654;5.476;2023-06-26T01:37:19;101218.50;;;23.54;57.82
72921;BME280;61064;51.654;5.476;2023-06-26T01:39:46;101227.66;;;23.52;57.87
72921;BME280;61064;51.654;5.476;2023-06-26T01:42:11;101230.66;;;23.46;57.65
72921;BME280;61064;51.654;5.476;2023-06-26T01:44:43;101233.56;;;23.40;57.99
72921;BME280;61064;51.654;5.476;2023-06-26T01:47:10;101240.94;;;23.36;57.78
72921;BME280;61064;51.654;5.476;2023-06-26T01:50:05;101247.50;;;23.31;57.88
72921;BME280;61064;51.654;5.476;2023-06-26T01:58:01;101256.53;;;23.08;58.03
72921;BME280;61064;51.654;5.476;2023-06-26T02:00:27;101268.47;;;23.04;58.00
72921;BME280;61064;51.654;5.476;2023-06-26T02:02:54;101262.56;;;22.93;58.01
72921;BME280;61064;51.654;5.476;2023-06-26T02:05:19;101255.50;;;22.89;58.20
72921;BME280;61064;51.654;5.476;2023-06-26T02:07:44;101258.44;;;22.83;58.20
72921;BME280;61064;51.654;5.476;2023-06-26T02:10:10;101261.34;;;22.78;58.58
72921;BME280;61064;51.654;5.476;2023-06-26T02:12:36;101256.13;;;22.72;58.45
72921;BME280;61064;51.654;5.476;2023-06-26T02:15:03;101255.38;;;22.67;58.79
72921;BME280;61064;51.654;5.476;2023-06-26T02:17:29;101249.25;;;22.62;58.84
72921;BME280;61064;51.654;5.476;2023-06-26T02:19:54;101259.31;;;22.58;59.00
72921;BME280;61064;51.654;5.476;2023-06-26T02:22:20;101260.41;;;22.53;59.13
72921;BME280;61064;51.654;5.476;2023-06-26T02:24:48;101255.16;;;22.48;59.40
72921;BME280;61064;51.654;5.476;2023-06-26T02:27:13;101254.50;;;22.42;59.37
72921;BME280;61064;51.654;5.476;2023-06-26T02:29:40;101256.38;;;22.39;59.52
72921;BME280;61064;51.654;5.476;2023-06-26T02:32:06;101250.16;;;22.36;59.78
72921;BME280;61064;51.654;5.476;2023-06-26T02:34:31;101257.53;;;22.32;59.71
72921;BME280;61064;51.654;5.476;2023-06-26T02:36:57;101262.13;;;22.30;59.81
72921;BME280;61064;51.654;5.476;2023-06-26T02:39:23;101261.41;;;22.25;60.05
72921;BME280;61064;51.654;5.476;2023-06-26T02:41:49;101276.84;;;22.23;60.28
72921;BME280;61064;51.654;5.476;2023-06-26T02:44:17;101277.06;;;22.17;60.40
72921;BME280;61064;51.654;5.476;2023-06-26T02:46:43;101276.25;;;22.14;60.74
72921;BME280;61064;51.654;5.476;2023-06-26T02:49:09;101286.34;;;22.10;61.05
72921;BME280;61064;51.654;5.476;2023-06-26T02:51:34;101288.28;;;22.07;61.10
72921;BME280;61064;51.654;5.476;2023-06-26T02:53:59;101292.06;;;22.01;61.47
72921;BME280;61064;51.654;5.476;2023-06-26T02:56:26;101297.53;;;22.00;61.41
72921;BME280;61064;51.654;5.476;2023-06-26T02:58:55;101297.56;;;21.98;61.66
72921;BME280;61064;51.654;5.476;2023-06-26T03:01:20;101286.84;;;21.95;61.74
72921;BME280;61064;51.654;5.476;2023-06-26T03:03:46;101293.16;;;21.95;61.83
72921;BME280;61064;51.654;5.476;2023-06-26T03:06:12;101296.81;;;21.93;62.07
72921;BME280;61064;51.654;5.476;2023-06-26T03:08:37;101295.06;;;21.90;62.17
72921;BME280;61064;51.654;5.476;2023-06-26T03:11:07;101302.47;;;21.85;62.36
72921;BME280;61064;51.654;5.476;2023-06-26T03:13:34;101296.31;;;21.80;62.51
72921;BME280;61064;51.654;5.476;2023-06-26T03:16:00;101301.91;;;21.76;62.96
72921;BME280;61064;51.654;5.476;2023-06-26T03:18:25;101304.75;;;21.71;62.92
72921;BME280;61064;51.654;5.476;2023-06-26T03:20:51;101302.22;;;21.67;63.25
72921;BME280;61064;51.654;5.476;2023-06-26T03:23:19;101309.44;;;21.66;63.39
72921;BME280;61064;51.654;5.476;2023-06-26T03:25:45;101305.00;;;21.64;63.55
72921;BME280;61064;51.654;5.476;2023-06-26T03:28:10;101298.84;;;21.58;63.62
72921;BME280;61064;51.654;5.476;2023-06-26T03:30:36;101296.13;;;21.58;63.62
72921;BME280;61064;51.654;5.476;2023-06-26T03:33:01;101290.88;;;21.54;63.89
72921;BME280;61064;51.654;5.476;2023-06-26T03:35:26;101290.97;;;21.51;63.94
72921;BME280;61064;51.654;5.476;2023-06-26T03:37:52;101292.88;;;21.47;64.35
72921;BME280;61064;51.654;5.476;2023-06-26T03:40:17;101287.56;;;21.44;64.58
72921;BME280;61064;51.654;5.476;2023-06-26T03:42:42;101286.72;;;21.42;64.81
72921;BME280;61064;51.654;5.476;2023-06-26T03:45:08;101294.94;;;21.39;64.81
72921;BME280;61064;51.654;5.476;2023-06-26T03:47:33;101303.16;;;21.36;65.09
72921;BME280;61064;51.654;5.476;2023-06-26T03:49:59;101303.28;;;21.32;65.27
72921;BME280;61064;51.654;5.476;2023-06-26T03:52:24;101302.50;;;21.28;65.37
72921;BME280;61064;51.654;5.476;2023-06-26T03:54:50;101289.16;;;21.22;65.50
72921;BME280;61064;51.654;5.476;2023-06-26T03:57:15;101303.63;;;21.21;65.78
72921;BME280;61064;51.654;5.476;2023-06-26T03:59:40;101314.53;;;21.18;66.04
72921;BME280;61064;51.654;5.476;2023-06-26T04:02:06;101314.63;;;21.15;66.25
72921;BME280;61064;51.654;5.476;2023-06-26T04:04:31;101315.63;;;21.11;66.52
72921;BME280;61064;51.654;5.476;2023-06-26T04:06:56;101325.47;;;21.13;66.59
72921;BME280;61064;51.654;5.476;2023-06-26T04:09:24;101326.38;;;21.12;66.80
72921;BME280;61064;51.654;5.476;2023-06-26T04:11:50;101339.09;;;21.10;66.82
72921;BME280;61064;51.654;5.476;2023-06-26T04:14:15;101336.41;;;21.09;66.92
72921;BME280;61064;51.654;5.476;2023-06-26T04:16:40;101345.47;;;21.08;66.95
72921;BME280;61064;51.654;5.476;2023-06-26T04:19:06;101345.53;;;21.06;67.18
72921;BME280;61064;51.654;5.476;2023-06-26T04:21:31;101347.38;;;21.04;67.33
72921;BME280;61064;51.654;5.476;2023-06-26T04:23:57;101348.28;;;21.05;67.56
72921;BME280;61064;51.654;5.476;2023-06-26T04:26:22;101357.28;;;21.05;67.80
72921;BME280;61064;51.654;5.476;2023-06-26T04:28:47;101347.41;;;21.03;67.87
72921;BME280;61064;51.654;5.476;2023-06-26T04:31:13;101357.31;;;21.04;68.00
72921;BME280;61064;51.654;5.476;2023-06-26T04:33:39;101362.69;;;21.05;68.06
72921;BME280;61064;51.654;5.476;2023-06-26T04:36:05;101358.22;;;21.04;68.00
72921;BME280;61064;51.654;5.476;2023-06-26T04:38:31;101366.34;;;21.03;68.13
72921;BME280;61064;51.654;5.476;2023-06-26T04:40:57;101369.06;;;21.03;68.31
72921;BME280;61064;51.654;5.476;2023-06-26T04:43:22;101377.16;;;21.04;68.54
72921;BME280;61064;51.654;5.476;2023-06-26T04:45:48;101376.13;;;21.08;68.52
72921;BME280;61064;51.654;5.476;2023-06-26T04:48:16;101377.88;;;21.11;68.46
72921;BME280;61064;51.654;5.476;2023-06-26T04:50:45;101380.50;;;21.12;68.59
72921;BME280;61064;51.654;5.476;2023-06-26T04:53:17;101382.28;;;21.13;68.64
72921;BME280;61064;51.654;5.476;2023-06-26T04:55:43;101387.69;;;21.13;68.63
72921;BME280;61064;51.654;5.476;2023-06-26T04:58:08;101394.78;;;21.19;68.59
72921;BME280;61064;51.654;5.476;2023-06-26T05:00:34;101396.44;;;21.25;68.69
72921;BME280;61064;51.654;5.476;2023-06-26T05:03:01;101383.00;;;21.22;68.60
72921;BME280;61064;51.654;5.476;2023-06-26T05:05:29;101406.38;;;21.24;68.54
72921;BME280;61064;51.654;5.476;2023-06-26T05:07:55;101399.19;;;21.23;68.66
72921;BME280;61064;51.654;5.476;2023-06-26T05:10:21;101400.16;;;21.21;68.79
72921;BME280;61064;51.654;5.476;2023-06-26T05:12:46;101407.44;;;21.19;68.62
72921;BME280;61064;51.654;5.476;2023-06-26T05:15:11;101399.41;;;21.14;68.84
72921;BME280;61064;51.654;5.476;2023-06-26T05:17:37;101400.41;;;21.11;68.77
72921;BME280;61064;51.654;5.476;2023-06-26T05:20:02;101412.13;;;21.12;68.89
72921;BME280;61064;51.654;5.476;2023-06-26T05:22:29;101408.53;;;21.11;68.91
72921;BME280;61064;51.654;5.476;2023-06-26T05:24:55;101406.69;;;21.12;68.98
72921;BME280;61064;51.654;5.476;2023-06-26T05:27:24;101412.06;;;21.13;69.07
72921;BME280;61064;51.654;5.476;2023-06-26T05:29:50;101415.63;;;21.17;69.18
72921;BME280;61064;51.654;5.476;2023-06-26T05:32:16;101418.03;;;21.26;69.18
72921;BME280;61064;51.654;5.476;2023-06-26T05:34:47;101417.03;;;21.30;69.00
72921;BME280;61064;51.654;5.476;2023-06-26T05:37:20;101423.25;;;21.34;68.87
72921;BME280;61064;51.654;5.476;2023-06-26T05:39:47;101424.94;;;21.38;68.76
72921;BME280;61064;51.654;5.476;2023-06-26T05:42:13;101430.13;;;21.45;68.50
72921;BME280;61064;51.654;5.476;2023-06-26T05:44:38;101432.69;;;21.50;68.36
72921;BME280;61064;51.654;5.476;2023-06-26T05:47:04;101438.91;;;21.53;68.09
72921;BME280;61064;51.654;5.476;2023-06-26T05:49:30;101444.16;;;21.60;67.93
72921;BME280;61064;51.654;5.476;2023-06-26T05:51:55;101447.56;;;21.66;67.94
72921;BME280;61064;51.654;5.476;2023-06-26T05:54:21;101450.03;;;21.74;67.81
72921;BME280;61064;51.654;5.476;2023-06-26T05:56:47;101453.25;;;21.86;67.51
72921;BME280;61064;51.654;5.476;2023-06-26T05:59:14;101453.03;;;21.94;67.42
72921;BME280;61064;51.654;5.476;2023-06-26T06:01:40;101452.00;;;22.00;67.07
72921;BME280;61064;51.654;5.476;2023-06-26T06:04:06;101461.75;;;22.05;67.01
72921;BME280;61064;51.654;5.476;2023-06-26T06:06:31;101457.97;;;22.11;66.99
72921;BME280;61064;51.654;5.476;2023-06-26T06:08:56;101456.78;;;22.19;66.95
72921;BME280;61064;51.654;5.476;2023-06-26T06:11:22;101470.63;;;22.38;66.81
72921;BME280;61064;51.654;5.476;2023-06-26T06:13:48;101471.13;;;22.51;66.59
72921;BME280;61064;51.654;5.476;2023-06-26T06:16:13;101473.38;;;22.64;65.94
72921;BME280;61064;51.654;5.476;2023-06-26T06:18:39;101489.31;;;22.75;65.62
72921;BME280;61064;51.654;5.476;2023-06-26T06:21:04;101479.28;;;22.78;64.99
72921;BME280;61064;51.654;5.476;2023-06-26T06:23:29;101483.66;;;22.83;64.97
72921;BME280;61064;51.654;5.476;2023-06-26T06:25:55;101487.34;;;22.80;64.64
72921;BME280;61064;51.654;5.476;2023-06-26T06:28:20;101498.19;;;22.80;64.53
72921;BME280;61064;51.654;5.476;2023-06-26T06:30:45;101491.88;;;22.79;64.53
72921;BME280;61064;51.654;5.476;2023-06-26T06:33:13;101498.19;;;22.80;64.53
72921;BME280;61064;51.654;5.476;2023-06-26T06:35:38;101491.81;;;22.81;64.41
72921;BME280;61064;51.654;5.476;2023-06-26T06:38:05;101501.41;;;22.91;64.21
72921;BME280;61064;51.654;5.476;2023-06-26T06:40:31;101497.41;;;23.03;64.07
72921;BME280;61064;51.654;5.476;2023-06-26T06:42:56;101496.13;;;23.13;63.68
72921;BME280;61064;51.654;5.476;2023-06-26T06:45:21;101503.03;;;23.23;63.63
72921;BME280;61064;51.654;5.476;2023-06-26T06:47:47;101516.06;;;23.38;63.23
72921;BME280;61064;51.654;5.476;2023-06-26T06:50:12;101507.50;;;23.50;62.86
72921;BME280;61064;51.654;5.476;2023-06-26T06:52:39;101514.31;;;23.62;62.71
72921;BME280;61064;51.654;5.476;2023-06-26T06:55:07;101515.63;;;23.75;62.05
72921;BME280;61064;51.654;5.476;2023-06-26T06:57:35;101523.59;;;23.80;61.60
72921;BME280;61064;51.654;5.476;2023-06-26T07:00:03;101521.91;;;23.77;60.76
72921;BME280;61064;51.654;5.476;2023-06-26T07:02:29;101535.84;;;23.68;60.93
72921;BME280;61064;51.654;5.476;2023-06-26T07:04:55;101532.63;;;23.57;60.73
72921;BME280;61064;51.654;5.476;2023-06-26T07:07:20;101540.56;;;23.37;61.06
72921;BME280;61064;51.654;5.476;2023-06-26T07:09:46;101553.63;;;23.26;61.32
72921;BME280;61064;51.654;5.476;2023-06-26T07:12:11;101551.28;;;23.15;61.20
72921;BME280;61064;51.654;5.476;2023-06-26T07:14:37;101543.63;;;23.01;61.63
72921;BME280;61064;51.654;5.476;2023-06-26T07:17:03;101544.59;;;22.99;61.87
72921;BME280;61064;51.654;5.476;2023-06-26T07:19:28;101550.78;;;23.02;61.91
72921;BME280;61064;51.654;5.476;2023-06-26T07:21:54;101543.53;;;23.03;61.86
72921;BME280;61064;51.654;5.476;2023-06-26T07:24:19;101557.47;;;23.18;62.00
72921;BME280;61064;51.654;5.476;2023-06-26T07:26:45;101562.44;;;23.32;61.85
72921;BME280;61064;51.654;5.476;2023-06-26T07:29:10;101566.56;;;23.44;61.54
72921;BME280;61064;51.654;5.476;2023-06-26T07:31:36;101566.38;;;23.50;61.34
72921;BME280;61064;51.654;5.476;2023-06-26T07:34:01;101565.38;;;23.52;61.46
72921;BME280;61064;51.654;5.476;2023-06-26T07:36:26;101567.09;;;23.55;60.97
72921;BME280;61064;51.654;5.476;2023-06-26T07:38:51;101571.47;;;23.59;61.23
72921;BME280;61064;51.654;5.476;2023-06-26T07:41:17;101577.31;;;23.73;61.33
72921;BME280;61064;51.654;5.476;2023-06-26T07:43:42;101571.13;;;23.93;60.95
72921;BME280;61064;51.654;5.476;2023-06-26T07:46:08;101584.53;;;23.97;60.11
72921;BME280;61064;51.654;5.476;2023-06-26T07:48:33;101582.34;;;23.84;59.78
72921;BME280;61064;51.654;5.476;2023-06-26T07:50:58;101591.28;;;23.63;60.25
72921;BME280;61064;51.654;5.476;2023-06-26T07:53:24;101602.63;;;23.49;60.41
72921;BME280;61064;51.654;5.476;2023-06-26T07:55:49;101606.31;;;23.46;60.72
72921;BME280;61064;51.654;5.476;2023-06-26T07:58:15;101609.63;;;23.56;60.62
72921;BME280;61064;51.654;5.476;2023-06-26T08:00:41;101613.78;;;23.66;59.88
72921;BME280;61064;51.654;5.476;2023-06-26T08:03:08;101609.25;;;23.67;59.41
72921;BME280;61064;51.654;5.476;2023-06-26T08:05:33;101608.25;;;23.69;59.34
72921;BME280;61064;51.654;5.476;2023-06-26T08:07:58;101604.53;;;23.72;59.27
72921;BME280;61064;51.654;5.476;2023-06-26T08:10:25;101610.47;;;23.83;58.88
72921;BME280;61064;51.654;5.476;2023-06-26T08:12:50;101618.78;;;24.03;58.06
72921;BME280;61064;51.654;5.476;2023-06-26T08:15:17;101619.47;;;24.08;57.56
72921;BME280;61064;51.654;5.476;2023-06-26T08:17:43;101623.28;;;24.04;57.10
72921;BME280;61064;51.654;5.476;2023-06-26T08:20:08;101625.28;;;23.99;56.24
72921;BME280;61064;51.654;5.476;2023-06-26T08:22:34;101623.94;;;23.86;55.50
72921;BME280;61064;51.654;5.476;2023-06-26T08:24:59;101624.91;;;23.85;55.80
72921;BME280;61064;51.654;5.476;2023-06-26T08:27:25;101629.31;;;23.87;55.63
72921;BME280;61064;51.654;5.476;2023-06-26T08:29:50;101629.28;;;23.89;56.13
72921;BME280;61064;51.654;5.476;2023-06-26T08:32:16;101631.88;;;23.92;55.47
72921;BME280;61064;51.654;5.476;2023-06-26T08:34:41;101629.72;;;24.01;55.28
72921;BME280;61064;51.654;5.476;2023-06-26T08:37:07;101631.03;;;24.15;54.97
72921;BME280;61064;51.654;5.476;2023-06-26T08:39:34;101621.38;;;24.31;54.41
72921;BME280;61064;51.654;5.476;2023-06-26T08:42:00;101627.06;;;24.48;53.81
72921;BME280;61064;51.654;5.476;2023-06-26T08:44:25;101619.25;;;24.62;53.28
72921;BME280;61064;51.654;5.476;2023-06-26T08:46:51;101629.59;;;24.76;53.16
72921;BME280;61064;51.654;5.476;2023-06-26T08:49:51;101629.81;;;24.93;52.46
72921;BME280;61064;51.654;5.476;2023-06-26T08:52:28;101642.31;;;24.99;52.18
72921;BME280;61064;51.654;5.476;2023-06-26T08:54:58;101642.94;;;25.05;51.73
72921;BME280;61064;51.654;5.476;2023-06-26T08:57:25;101650.97;;;25.08;51.66
72921;BME280;61064;51.654;5.476;2023-06-26T08:59:51;101648.16;;;25.11;50.89
72921;BME280;61064;51.654;5.476;2023-06-26T09:02:17;101648.19;;;25.10;50.87
72921;BME280;61064;51.654;5.476;2023-06-26T09:04:42;101636.16;;;25.15;50.43
72921;BME280;61064;51.654;5.476;2023-06-26T09:07:08;101655.03;;;25.20;50.22
72921;BME280;61064;51.654;5.476;2023-06-26T09:09:33;101662.16;;;25.24;50.26
72921;BME280;61064;51.654;5.476;2023-06-26T09:11:58;101654.53;;;25.32;50.47
72921;BME280;61064;51.654;5.476;2023-06-26T09:14:24;101652.97;;;25.47;49.89
72921;BME280;61064;51.654;5.476;2023-06-26T09:16:50;101657.00;;;25.60;49.35
72921;BME280;61064;51.654;5.476;2023-06-26T09:19:15;101669.47;;;25.65;49.29
72921;BME280;61064;51.654;5.476;2023-06-26T09:21:42;101671.22;;;25.68;48.97
72921;BME280;61064;51.654;5.476;2023-06-26T09:24:09;101669.38;;;25.69;48.56
72921;BME280;61064;51.654;5.476;2023-06-26T09:26:36;101673.84;;;25.70;48.70
72921;BME280;61064;51.654;5.476;2023-06-26T09:29:03;101666.50;;;25.72;48.15
72921;BME280;61064;51.654;5.476;2023-06-26T09:31:29;101667.19;;;25.77;47.70
72921;BME280;61064;51.654;5.476;2023-06-26T09:33:59;101665.50;;;25.74;47.59
72921;BME280;61064;51.654;5.476;2023-06-26T09:36:32;101675.69;;;25.69;47.80
72921;BME280;61064;51.654;5.476;2023-06-26T09:39:02;101683.38;;;25.59;47.30
72921;BME280;61064;51.654;5.476;2023-06-26T09:41:28;101677.03;;;25.59;47.95
72921;BME280;61064;51.654;5.476;2023-06-26T09:44:02;101692.22;;;25.64;47.65
72921;BME280;61064;51.654;5.476;2023-06-26T09:46:29;101689.03;;;25.53;47.44
72921;BME280;61064;51.654;5.476;2023-06-26T09:49:08;101695.91;;;25.42;47.94
72921;BME280;61064;51.654;5.476;2023-06-26T09:51:35;101706.09;;;25.37;48.17
72921;BME280;61064;51.654;5.476;2023-06-26T09:54:01;101704.25;;;25.37;48.31
72921;BME280;61064;51.654;5.476;2023-06-26T09:56:29;101708.06;;;25.33;47.79
72921;BME280;61064;51.654;5.476;2023-06-26T09:59:00;101710.41;;;25.20;47.64
72921;BME280;61064;51.654;5.476;2023-06-26T10:01:29;101704.25;;;25.15;47.29
72921;BME280;61064;51.654;5.476;2023-06-26T10:03:55;101707.28;;;25.08;47.36
72921;BME280;61064;51.654;5.476;2023-06-26T10:06:45;101715.72;;;25.02;46.74
72921;BME280;61064;51.654;5.476;2023-06-26T10:09:14;101714.19;;;24.95;46.69
72921;BME280;61064;51.654;5.476;2023-06-26T10:11:50;101732.53;;;24.90;46.34
72921;BME280;61064;51.654;5.476;2023-06-26T10:14:17;101726.91;;;24.94;46.24
72921;BME280;61064;51.654;5.476;2023-06-26T10:16:46;101728.34;;;25.03;45.95
72921;BME280;61064;51.654;5.476;2023-06-26T10:19:14;101734.13;;;25.18;46.14
72921;BME280;61064;51.654;5.476;2023-06-26T10:21:42;101726.41;;;25.30;45.65
72921;BME280;61064;51.654;5.476;2023-06-26T10:24:08;101729.63;;;25.39;45.53
72921;BME280;61064;51.654;5.476;2023-06-26T10:26:42;101734.56;;;25.51;45.22
72921;BME280;61064;51.654;5.476;2023-06-26T10:29:10;101723.50;;;25.56;45.12
72921;BME280;61064;51.654;5.476;2023-06-26T10:31:37;101733.47;;;25.57;44.47
72921;BME280;61064;51.654;5.476;2023-06-26T10:34:04;101731.69;;;25.56;43.97
72921;BME280;61064;51.654;5.476;2023-06-26T10:36:31;101736.22;;;25.55;43.92
72921;BME280;61064;51.654;5.476;2023-06-26T10:39:05;101722.88;;;25.48;43.84
72921;BME280;61064;51.654;5.476;2023-06-26T10:41:39;101726.41;;;25.51;43.26
72921;BME280;61064;51.654;5.476;2023-06-26T10:44:25;101743.28;;;25.61;42.52
72921;BME280;61064;51.654;5.476;2023-06-26T10:46:55;101755.19;;;25.58;42.72
72921;BME280;61064;51.654;5.476;2023-06-26T10:49:29;101744.50;;;25.52;42.58
72921;BME280;61064;51.654;5.476;2023-06-26T10:51:55;101757.31;;;25.50;42.64
72921;BME280;61064;51.654;5.476;2023-06-26T10:54:41;101753.91;;;25.45;42.76
72921;BME280;61064;51.654;5.476;2023-06-26T10:57:07;101738.19;;;25.52;42.85
72921;BME280;61064;51.654;5.476;2023-06-26T10:59:39;101738.66;;;25.63;42.17
72921;BME280;61064;51.654;5.476;2023-06-26T11:02:05;101750.94;;;25.73;41.92
72921;BME280;61064;51.654;5.476;2023-06-26T11:04:47;101757.34;;;25.72;41.10
72921;BME280;61064;51.654;5.476;2023-06-26T11:07:25;101756.75;;;25.64;40.95
72921;BME280;61064;51.654;5.476;2023-06-26T11:10:10;101768.06;;;25.53;41.49
72921;BME280;61064;51.654;5.476;2023-06-26T11:15:14;101763.31;;;25.60;40.88
72921;BME280;61064;51.654;5.476;2023-06-26T11:17:42;101771.91;;;25.71;40.72
72921;BME280;61064;51.654;5.476;2023-06-26T11:20:14;101768.06;;;25.77;40.39
72921;BME280;61064;51.654;5.476;2023-06-26T11:22:43;101768.81;;;25.80;40.47
72921;BME280;61064;51.654;5.476;2023-06-26T11:25:10;101779.41;;;25.88;40.43
72921;BME280;61064;51.654;5.476;2023-06-26T11:27:42;101765.97;;;26.03;40.78
72921;BME280;61064;51.654;5.476;2023-06-26T11:30:22;101775.19;;;26.23;40.67
72921;BME280;61064;51.654;5.476;2023-06-26T11:32:48;101782.06;;;26.31;39.96
72921;BME280;61064;51.654;5.476;2023-06-26T11:35:22;101790.47;;;26.27;39.93
72921;BME280;61064;51.654;5.476;2023-06-26T11:37:55;101784.69;;;26.13;39.87
72921;BME280;61064;51.654;5.476;2023-06-26T11:40:22;101798.91;;;25.99;40.61
72921;BME280;61064;51.654;5.476;2023-06-26T11:42:52;101798.66;;;26.05;40.58
72921;BME280;61064;51.654;5.476;2023-06-26T11:45:19;101805.50;;;26.15;40.50
72921;BME280;61064;51.654;5.476;2023-06-26T11:47:45;101794.47;;;26.18;40.49
72921;BME280;61064;51.654;5.476;2023-06-26T11:50:19;101820.03;;;26.16;40.23
72921;BME280;61064;51.654;5.476;2023-06-26T11:52:45;101811.16;;;26.11;40.01
72921;BME280;61064;51.654;5.476;2023-06-26T11:55:11;101816.66;;;26.09;39.41
72921;BME280;61064;51.654;5.476;2023-06-26T11:57:37;101813.81;;;26.12;39.84
72921;BME280;61064;51.654;5.476;2023-06-26T12:00:13;101831.19;;;26.09;39.46
72921;BME280;61064;51.654;5.476;2023-06-26T12:02:39;101829.34;;;26.10;39.49
72921;BME280;61064;51.654;5.476;2023-06-26T12:05:05;101826.63;;;26.10;39.85
72921;BME280;61064;51.654;5.476;2023-06-26T12:07:31;101833.13;;;26.07;39.95
72921;BME280;61064;51.654;5.476;2023-06-26T12:09:57;101826.75;;;26.07;40.25
72921;BME280;61064;51.654;5.476;2023-06-26T12:12:24;101821.06;;;26.13;40.59
72921;BME280;61064;51.654;5.476;2023-06-26T12:14:51;101832.66;;;26.18;40.08
72921;BME280;61064;51.654;5.476;2023-06-26T12:17:17;101826.97;;;26.24;40.20
72921;BME280;61064;51.654;5.476;2023-06-26T12:19:44;101839.94;;;26.39;40.67
72921;BME280;61064;51.654;5.476;2023-06-26T12:22:12;101830.38;;;26.49;40.75
72921;BME280;61064;51.654;5.476;2023-06-26T12:24:39;101840.63;;;26.44;40.74
72921;BME280;61064;51.654;5.476;2023-06-26T12:27:09;101844.13;;;26.26;41.04
72921;BME280;61064;51.654;5.476;2023-06-26T12:29:35;101832.91;;;26.12;41.64
72921;BME280;61064;51.654;5.476;2023-06-26T12:32:01;101833.81;;;26.13;41.27
72921;BME280;61064;51.654;5.476;2023-06-26T12:34:38;101843.69;;;26.15;39.26
72921;BME280;61064;51.654;5.476;2023-06-26T12:37:06;101832.75;;;26.15;39.81
72921;BME280;61064;51.654;5.476;2023-06-26T12:39:58;101844.03;;;26.07;39.82
72921;BME280;61064;51.654;5.476;2023-06-26T12:42:25;101832.22;;;26.07;40.22
72921;BME280;61064;51.654;5.476;2023-06-26T12:44:52;101827.56;;;26.09;40.35
72921;BME280;61064;51.654;5.476;2023-06-26T12:47:22;101832.66;;;26.18;40.28
72921;BME280;61064;51.654;5.476;2023-06-26T12:49:50;101824.25;;;26.24;40.13
72921;BME280;61064;51.654;5.476;2023-06-26T12:52:17;101832.16;;;26.30;40.08
72921;BME280;61064;51.654;5.476;2023-06-26T12:54:44;101835.16;;;26.44;39.63
72921;BME280;61064;51.654;5.476;2023-06-26T12:57:10;101839.94;;;26.60;39.44
72921;BME280;61064;51.654;5.476;2023-06-26T12:59:37;101835.56;;;26.76;39.21